Time;durP1;ratioP1;P1;durP2;ratioP2;P2;SDS_P1;SDS_P2;PMS_P1;PMS_P2;Temp;Humidity;BMP_temperature;BMP_pressure;BME280_temperature;BME280_humidity;BME280_pressure;Samples;Min_cycle;Max_cycle;Signal;HPM_P1;HPM_P2
2022/06/23 00:00:30;;;;;;;2.58;1.55;;;15.80;99.90;;;;;;5000586;28;20046;-88
2022/06/23 00:02:57;;;;;;;2.92;1.83;;;15.70;99.90;;;;;;5000886;28;20042;-89
2022/06/23 00:05:27;;;;;;;2.72;1.30;;;15.70;99.90;;;;;;5001137;28;20546;-89
2022/06/23 00:07:58;;;;;;;1.35;1.25;;;15.70;99.90;;;;;;5001584;28;20069;-91
2022/06/23 00:10:36;;;;;;;1.40;1.30;;;15.60;99.90;;;;;;5000472;28;20103;-89
2022/06/23 00:13:03;;;;;;;1.63;1.33;;;15.60;99.90;;;;;;4985576;28;20042;-89
2022/06/23 00:15:39;;;;;;;1.88;1.67;;;15.60;99.90;;;;;;4980617;28;20073;-89
2022/06/23 00:18:15;;;;;;;1.92;1.60;;;15.60;99.90;;;;;;4982749;28;20104;-90
2022/06/23 00:21:02;;;;;;;2.28;1.85;;;15.60;99.90;;;;;;4997633;28;20400;-90
2022/06/23 00:23:38;;;;;;;2.35;1.63;;;15.60;99.90;;;;;;4982682;28;20054;-89
2022/06/23 00:26:29;;;;;;;5.25;1.67;;;15.50;99.90;;;;;;4981971;28;20053;-90
2022/06/23 00:29:04;;;;;;;1.90;1.80;;;15.50;99.90;;;;;;4981348;28;20056;-90
2022/06/23 00:31:36;;;;;;;1.85;1.75;;;15.50;99.90;;;;;;4980523;28;20043;-90
2022/06/23 00:34:17;;;;;;;2.40;2.20;;;15.40;99.90;;;;;;4981237;28;20062;-88
2022/06/23 00:37:00;;;;;;;2.40;1.63;;;15.40;99.90;;;;;;4982090;28;20046;-89
2022/06/23 00:39:36;;;;;;;3.05;2.75;;;15.40;99.90;;;;;;4980593;28;20044;-89
2022/06/23 00:42:06;;;;;;;2.00;1.80;;;15.40;99.90;;;;;;4982485;28;20070;-89
2022/06/23 00:44:49;;;;;;;2.20;2.00;;;15.30;99.90;;;;;;4982570;28;20543;-90
2022/06/23 00:47:20;;;;;;;2.97;2.47;;;15.30;99.90;;;;;;4981089;28;20046;-89
2022/06/23 00:49:51;;;;;;;2.37;2.17;;;15.30;99.90;;;;;;4980947;28;20058;-89
2022/06/23 00:52:26;;;;;;;3.25;2.13;;;15.20;99.90;;;;;;4982363;28;20034;-89
2022/06/23 00:54:56;;;;;;;2.97;2.42;;;15.20;99.90;;;;;;4980659;28;20053;-88
2022/06/23 00:57:34;;;;;;;3.20;3.00;;;15.20;99.90;;;;;;4980790;28;20045;-90
2022/06/23 01:00:22;;;;;;;2.83;2.55;;;15.20;99.90;;;;;;4981561;28;20078;-90
2022/06/23 01:03:05;;;;;;;2.13;1.92;;;15.20;99.90;;;;;;4981128;28;20497;-90
2022/06/23 01:05:35;;;;;;;;;;;15.20;99.90;;;;;;4982394;28;20048;-89
2022/06/23 01:08:15;;;;;;;3.58;2.63;;;15.20;99.90;;;;;;5006076;28;20023;-88
2022/06/23 01:10:48;;;;;;;3.72;2.97;;;15.10;99.90;;;;;;5001179;28;20125;-91
2022/06/23 01:16:07;;;;;;;4.75;3.15;;;15.10;99.90;;;;;;4992455;23;20508;-89
2022/06/23 01:18:49;;;;;;;3.60;3.08;;;15.10;99.90;;;;;;4985720;28;20042;-90
2022/06/23 01:21:18;;;;;;;4.13;3.28;;;15.00;99.90;;;;;;4985842;28;20107;-89
2022/06/23 01:24:06;;;;;;;3.05;2.85;;;15.00;99.90;;;;;;4985482;28;20719;-84
2022/06/23 01:26:49;;;;;;;3.28;3.08;;;15.00;99.90;;;;;;4984376;28;20042;-88
2022/06/23 01:29:18;;;;;;;4.32;3.92;;;15.00;99.90;;;;;;4984709;28;20456;-88
2022/06/23 01:31:58;;;;;;;4.03;3.72;;;15.00;99.90;;;;;;4983120;28;20050;-90
2022/06/23 01:34:38;;;;;;;4.18;3.78;;;14.90;99.90;;;;;;4984114;28;20048;-90
2022/06/23 01:37:21;;;;;;;4.60;3.40;;;15.00;99.90;;;;;;4984592;28;20417;-89
2022/06/23 01:40:01;;;;;;;3.83;3.40;;;14.90;99.90;;;;;;5000973;28;20046;-90
2022/06/23 01:42:36;;;;;;;4.28;3.20;;;14.90;99.90;;;;;;4984446;28;20047;-90
2022/06/23 01:45:35;;;;;;;3.85;3.35;;;14.90;99.90;;;;;;4983662;28;20046;-90
2022/06/23 01:48:05;;;;;;;3.80;3.38;;;14.90;99.90;;;;;;4984170;28;20189;-88
2022/06/23 01:50:41;;;;;;;3.92;3.03;;;14.80;99.90;;;;;;4984201;28;20116;-91
2022/06/23 01:53:28;;;;;;;4.90;4.28;;;14.80;99.90;;;;;;4985332;28;20130;-87
2022/06/23 01:56:35;;;;;;;4.75;2.97;;;14.80;99.90;;;;;;5000354;28;20042;-91
2022/06/23 01:59:15;;;;;;;4.45;4.03;;;14.80;99.90;;;;;;4984609;28;20050;-88
2022/06/23 02:01:51;;;;;;;4.65;4.00;;;14.80;99.90;;;;;;4982978;28;20082;-89
2022/06/23 02:04:30;;;;;;;4.38;3.83;;;14.70;99.90;;;;;;4983609;28;20049;-89
2022/06/23 02:07:33;;;;;;;5.88;3.78;;;14.70;99.90;;;;;;4984248;28;20068;-89
2022/06/23 02:10:18;;;;;;;5.47;4.32;;;14.70;99.90;;;;;;4957694;28;20058;-89
2022/06/23 02:13:02;;;;;;;7.25;5.25;;;14.70;99.90;;;;;;4976481;28;20070;-89
2022/06/23 02:15:37;;;;;;;5.93;4.68;;;14.70;99.90;;;;;;4983732;28;20058;-88
2022/06/23 02:18:32;;;;;;;5.32;4.80;;;14.70;99.90;;;;;;4983034;28;20057;-90
2022/06/23 02:20:57;;;;;;;10.25;4.50;;;14.70;99.90;;;;;;4984620;28;20050;-90
2022/06/23 02:23:37;;;;;;;6.53;3.85;;;14.60;99.90;;;;;;4983219;28;20046;-89
2022/06/23 02:26:13;;;;;;;5.22;4.38;;;14.60;99.90;;;;;;4984644;28;20410;-90
2022/06/23 02:28:54;;;;;;;6.10;4.25;;;14.60;99.90;;;;;;4999857;28;20043;-88
2022/06/23 02:31:47;;;;;;;5.22;3.47;;;14.60;99.90;;;;;;4983663;28;20104;-88
2022/06/23 02:34:22;;;;;;;5.82;4.07;;;14.60;99.90;;;;;;4983398;28;20185;-89
2022/06/23 02:37:06;;;;;;;5.72;4.13;;;14.60;99.90;;;;;;4982735;28;20057;-89
2022/06/23 02:39:49;;;;;;;5.18;3.95;;;14.50;99.90;;;;;;4983053;28;20502;-88
2022/06/23 02:42:26;;;;;;;4.95;4.03;;;14.50;99.90;;;;;;4982998;28;20626;-89
2022/06/23 02:44:59;;;;;;;5.28;3.95;;;14.50;99.90;;;;;;4965264;28;20085;-90
2022/06/23 02:47:39;;;;;;;6.18;4.25;;;14.50;99.90;;;;;;4967084;28;20109;-90
2022/06/23 02:50:24;;;;;;;5.88;5.07;;;14.50;99.90;;;;;;4983521;28;20129;-89
2022/06/23 02:53:09;;;;;;;6.38;3.75;;;14.50;99.90;;;;;;4984076;28;20136;-88
2022/06/23 02:56:01;;;;;;;5.13;4.32;;;14.50;99.90;;;;;;4982936;28;20661;-89
2022/06/23 02:58:49;;;;;;;10.65;5.20;;;14.50;99.90;;;;;;4983483;28;20181;-83
2022/06/23 03:01:26;;;;;;;8.60;4.40;;;14.40;99.90;;;;;;4982003;28;20431;-89
2022/06/23 03:04:23;;;;;;;6.85;4.43;;;14.40;99.90;;;;;;4983920;28;20049;-90
2022/06/23 03:07:03;;;;;;;5.45;4.55;;;14.40;99.90;;;;;;4982315;28;20050;-90
2022/06/23 03:09:42;;;;;;;7.10;4.60;;;14.40;99.90;;;;;;4983930;28;20042;-90
2022/06/23 03:12:13;;;;;;;5.57;3.88;;;14.40;99.90;;;;;;4981954;28;20058;-89
2022/06/23 03:14:42;;;;;;;9.88;5.40;;;14.40;99.90;;;;;;4981522;28;20492;-89
2022/06/23 03:17:40;;;;;;;5.57;3.83;;;14.30;99.90;;;;;;4982312;28;20122;-90
2022/06/23 03:20:25;;;;;;;6.90;5.28;;;14.30;99.90;;;;;;4982499;28;20054;-91
2022/06/23 03:23:06;;;;;;;9.82;5.28;;;14.30;99.90;;;;;;4982090;28;20400;-89
2022/06/23 03:25:40;;;;;;;5.18;4.10;;;14.30;99.90;;;;;;4982061;28;20050;-89
2022/06/23 03:28:31;;;;;;;5.68;4.70;;;14.30;99.90;;;;;;4981981;28;20566;-90
2022/06/23 03:31:08;;;;;;;7.22;6.13;;;14.30;99.90;;;;;;4980966;28;20042;-89
2022/06/23 03:33:43;;;;;;;7.13;5.20;;;14.30;99.90;;;;;;4983279;28;20046;-91
2022/06/23 03:36:27;;;;;;;5.53;4.53;;;14.30;99.90;;;;;;4983540;28;20084;-90
2022/06/23 03:41:59;;;;;;;7.82;5.97;;;14.30;99.90;;;;;;4983078;28;20145;-91
2022/06/23 03:44:31;;;;;;;8.13;5.20;;;14.30;99.90;;;;;;4981172;28;20065;-90
2022/06/23 03:47:04;;;;;;;;;;;14.30;99.90;;;;;;4982468;28;20034;-90
2022/06/23 03:49:32;;;;;;;6.90;5.97;;;14.30;99.90;;;;;;4983389;28;19968;-90
2022/06/23 03:52:02;;;;;;;6.40;5.70;;;14.30;99.90;;;;;;4998162;28;20065;-90
2022/06/23 03:54:49;;;;;;;8.52;6.18;;;14.30;99.90;;;;;;4981642;28;20077;-89
2022/06/23 03:57:31;;;;;;;7.25;5.55;;;14.30;99.90;;;;;;4965616;28;20038;-89
2022/06/23 04:00:00;;;;;;;6.57;5.15;;;14.30;99.90;;;;;;4981424;28;20046;-90
2022/06/23 04:02:30;;;;;;;6.43;5.10;;;14.40;99.90;;;;;;4982818;28;20133;-89
2022/06/23 04:05:09;;;;;;;9.00;5.75;;;14.40;99.90;;;;;;4981245;28;20076;-90
2022/06/23 04:08:00;;;;;;;7.50;5.18;;;14.40;99.90;;;;;;4981170;28;20039;-89
2022/06/23 04:10:40;;;;;;;7.90;5.53;;;14.40;99.90;;;;;;4981110;28;20046;-89
2022/06/23 04:13:27;;;;;;;6.70;5.30;;;14.40;99.90;;;;;;4981006;28;20754;-90
2022/06/23 04:16:00;;;;;;;10.32;6.25;;;14.40;99.90;;;;;;4980544;28;20069;-90
2022/06/23 04:18:29;;;;;;;7.93;5.53;;;14.40;99.90;;;;;;4982437;28;20046;-87
2022/06/23 04:21:03;;;;;;;8.02;5.35;;;14.40;99.90;;;;;;4980817;28;20100;-87
2022/06/23 04:23:35;;;;;;;6.60;5.72;;;14.40;99.90;;;;;;4981971;28;20043;-88
2022/06/23 04:26:22;;;;;;;6.85;4.82;;;14.40;99.90;;;;;;4980358;28;20042;-89
2022/06/23 04:28:54;;;;;;;9.30;6.13;;;14.40;99.90;;;;;;4981859;28;20038;-88
2022/06/23 04:31:28;;;;;;;5.43;4.88;;;14.50;99.90;;;;;;4979833;28;20042;-89
2022/06/23 04:33:54;;;;;;;9.93;5.43;;;14.50;99.90;;;;;;4981376;28;20056;-90
2022/06/23 04:36:23;;;;;;;9.50;6.03;;;14.50;99.90;;;;;;4980785;28;20046;-87
2022/06/23 04:38:55;;;;;;;9.75;6.18;;;14.50;99.90;;;;;;4980585;28;20082;-89
2022/06/23 04:41:36;;;;;;;6.60;5.95;;;14.50;99.90;;;;;;4980878;28;20169;-87
2022/06/23 04:44:06;;;;;;;6.20;5.35;;;14.50;99.90;;;;;;4980539;28;20096;-89
2022/06/23 04:46:40;;;;;;;7.53;5.68;;;14.50;99.90;;;;;;4980903;28;20042;-89
2022/06/23 04:49:24;;;;;;;9.02;6.85;;;14.60;99.90;;;;;;4985553;28;20047;-87
2022/06/23 04:52:20;;;;;;;7.85;5.53;;;14.60;99.90;;;;;;4984414;28;20500;-88
2022/06/23 04:54:56;;;;;;;7.40;5.38;;;14.60;99.90;;;;;;4984289;28;20047;-89
2022/06/23 04:57:43;;;;;;;7.47;6.55;;;14.60;99.90;;;;;;4985944;28;20073;-89
2022/06/23 05:00:22;;;;;;;7.80;5.43;;;14.70;99.90;;;;;;4984267;28;20769;-88
2022/06/23 05:02:54;;;;;;;6.82;5.90;;;14.70;99.90;;;;;;4974844;28;20154;-89
2022/06/23 05:05:26;;;;;;;9.20;6.18;;;14.80;99.90;;;;;;4984111;28;20254;-91
2022/06/23 05:08:00;;;;;;;7.30;5.50;;;14.80;99.90;;;;;;4984259;28;20057;-90
2022/06/23 05:10:46;;;;;;;8.77;5.50;;;14.80;99.90;;;;;;4985073;28;20192;-91
2022/06/23 05:13:18;;;;;;;9.35;5.72;;;14.90;99.90;;;;;;4985626;28;20166;-89
2022/06/23 05:15:50;;;;;;;8.65;5.57;;;14.90;99.90;;;;;;4975493;28;20396;-87
2022/06/23 05:18:30;;;;;;;7.07;4.95;;;14.90;99.90;;;;;;4984002;28;20053;-88
2022/06/23 05:21:00;;;;;;;4.95;4.45;;;15.00;99.90;;;;;;5000710;28;20035;-92
2022/06/23 05:23:30;;;;;;;8.38;5.70;;;15.00;99.90;;;;;;4977197;28;20034;-90
2022/06/23 05:26:05;;;;;;;12.20;5.88;;;15.00;99.90;;;;;;4974847;28;20034;-92
2022/06/23 05:28:35;;;;;;;7.57;5.32;;;15.10;99.90;;;;;;4983151;28;20038;-86
2022/06/23 05:31:18;;;;;;;7.03;5.95;;;15.10;99.90;;;;;;4970952;28;20078;-87
2022/06/23 05:33:49;;;;;;;8.13;5.82;;;15.10;99.90;;;;;;4970908;28;20057;-93
2022/06/23 05:36:31;;;;;;;8.05;6.15;;;15.20;99.90;;;;;;4992163;28;20045;-81
2022/06/23 05:39:03;;;;;;;6.85;5.47;;;15.20;99.90;;;;;;4972129;28;20045;-77
2022/06/23 05:41:42;;;;;;;10.60;6.90;;;15.20;99.90;;;;;;4972470;28;20619;-80
2022/06/23 05:44:16;;;;;;;5.80;5.13;;;15.30;99.90;;;;;;4974596;28;20065;-83
2022/06/23 05:46:44;;;;;;;6.57;5.32;;;15.30;99.90;;;;;;4981717;28;20078;-85
2022/06/23 05:49:24;;;;;;;6.45;5.50;;;15.40;99.90;;;;;;4979219;28;20045;-87
2022/06/23 05:51:59;;;;;;;12.30;5.10;;;15.40;99.90;;;;;;4978512;28;20085;-86
2022/06/23 05:54:40;;;;;;;9.30;5.53;;;15.50;99.90;;;;;;4977861;28;20395;-87
2022/06/23 05:57:15;;;;;;;8.93;6.67;;;15.50;99.90;;;;;;4974890;28;20049;-85
2022/06/23 06:00:00;;;;;;;8.93;6.00;;;15.60;99.90;;;;;;4982467;28;20297;-86
2022/06/23 06:02:32;;;;;;;9.75;5.88;;;15.60;99.90;;;;;;4972515;28;20085;-84
2022/06/23 06:05:00;;;;;;;6.43;5.68;;;15.60;99.90;;;;;;4986019;28;20058;-85
2022/06/23 06:07:36;;;;;;;6.93;5.03;;;15.70;99.90;;;;;;4968386;28;20386;-86
2022/06/23 06:10:05;;;;;;;6.43;5.38;;;15.70;99.90;;;;;;4967763;28;20570;-85
2022/06/23 06:12:37;;;;;;;6.78;5.55;;;15.70;99.90;;;;;;4973066;28;20048;-86
2022/06/23 06:15:22;;;;;;;7.63;5.55;;;15.80;99.90;;;;;;4980750;28;20469;-85
2022/06/23 06:17:52;;;;;;;9.85;6.43;;;15.90;99.90;;;;;;4982524;28;20082;-85
2022/06/23 06:20:23;;;;;;;8.10;5.65;;;15.90;99.90;;;;;;4971766;28;20503;-85
2022/06/23 06:23:14;;;;;;;7.90;5.43;;;16.00;99.90;;;;;;4972716;28;20064;-86
2022/06/23 06:25:44;;;;;;;7.72;6.13;;;16.00;99.90;;;;;;4967528;28;20389;-85
2022/06/23 06:28:23;;;;;;;8.70;5.72;;;16.10;99.90;;;;;;4976048;28;20058;-85
2022/06/23 06:31:11;;;;;;;6.45;5.32;;;16.10;99.90;;;;;;4979462;28;20053;-84
2022/06/23 06:33:52;;;;;;;9.98;7.00;;;16.20;99.90;;;;;;4982383;28;20038;-86
2022/06/23 06:36:38;;;;;;;9.07;7.05;;;16.20;99.90;;;;;;4981496;28;20058;-86
2022/06/23 06:39:10;;;;;;;7.18;6.18;;;16.30;99.90;;;;;;4980556;28;20038;-86
2022/06/23 06:41:37;;;;;;;8.02;6.38;;;16.40;99.90;;;;;;4982224;28;20512;-86
2022/06/23 06:44:03;;;;;;;10.15;6.57;;;16.40;99.90;;;;;;4981139;28;20101;-86
2022/06/23 06:46:30;;;;;;;8.35;5.85;;;16.40;99.90;;;;;;4982245;28;20424;-87
2022/06/23 06:48:57;;;;;;;7.97;5.18;;;16.50;99.90;;;;;;4980907;28;20078;-87
2022/06/23 06:51:26;;;;;;;9.43;6.38;;;16.50;99.90;;;;;;4980606;28;20101;-87
2022/06/23 06:54:00;;;;;;;8.70;5.65;;;16.60;99.90;;;;;;4980973;28;20076;-85
2022/06/23 06:56:40;;;;;;;6.30;5.63;;;16.60;99.90;;;;;;4962748;28;20126;-87
2022/06/23 06:59:28;;;;;;;6.88;5.60;;;16.70;99.90;;;;;;4979495;28;20050;-86
2022/06/23 07:02:14;;;;;;;7.38;5.50;;;16.70;99.90;;;;;;4977514;28;20116;-85
2022/06/23 07:04:51;;;;;;;6.97;4.45;;;16.80;99.90;;;;;;4980670;28;20053;-84
2022/06/23 07:07:21;;;;;;;7.50;6.13;;;16.90;99.90;;;;;;4978355;28;20256;-84
2022/06/23 07:09:58;;;;;;;7.00;5.35;;;16.90;99.90;;;;;;4986904;28;20351;-87
2022/06/23 07:12:32;;;;;;;10.45;6.88;;;16.90;99.90;;;;;;4979842;28;20125;-85
2022/06/23 07:15:11;;;;;;;14.13;6.65;;;17.00;99.90;;;;;;4979719;28;20058;-86
2022/06/23 07:17:43;;;;;;;6.82;5.43;;;17.00;99.90;;;;;;4979972;28;20558;-85
2022/06/23 07:20:58;;;;;;;5.85;4.40;;;17.10;99.90;;;;;;4982069;28;20054;-85
2022/06/23 07:24:11;;;;;;;11.73;7.32;;;17.20;99.90;;;;;;4923389;29;20123;-86
2022/06/23 07:26:46;;;;;;;10.90;6.18;;;17.30;99.90;;;;;;4921498;29;20055;-85
2022/06/23 07:29:19;;;;;;;7.20;5.88;;;17.30;99.90;;;;;;4960913;28;20360;-85
2022/06/23 07:32:00;;;;;;;6.10;4.55;;;17.40;99.90;;;;;;4966978;28;20073;-86
2022/06/23 07:34:30;;;;;;;5.90;4.97;;;17.40;99.90;;;;;;4979566;28;20049;-88
2022/06/23 07:36:58;;;;;;;7.63;6.13;;;17.50;99.90;;;;;;4957682;28;20127;-85
2022/06/23 07:39:38;;;;;;;7.72;5.72;;;17.50;99.90;;;;;;4976571;28;20046;-86
2022/06/23 07:42:04;;;;;;;9.45;6.32;;;17.60;99.90;;;;;;4971728;28;20061;-86
2022/06/23 07:44:44;;;;;;;7.53;5.15;;;17.70;99.90;;;;;;4972269;28;20038;-88
2022/06/23 07:47:10;;;;;;;9.00;5.85;;;17.70;99.90;;;;;;4990616;28;20075;-87
2022/06/23 07:49:36;;;;;;;9.98;5.90;;;17.80;99.90;;;;;;4976662;28;20126;-86
2022/06/23 07:52:03;;;;;;;6.82;5.28;;;17.80;99.90;;;;;;4972114;28;20039;-85
2022/06/23 07:54:30;;;;;;;5.60;5.05;;;17.80;99.90;;;;;;4973014;28;20077;-86
2022/06/23 07:56:56;;;;;;;5.18;4.68;;;17.90;99.90;;;;;;4970759;28;20174;-86
2022/06/23 07:59:26;;;;;;;6.78;4.43;;;18.00;99.90;;;;;;4966534;28;20716;-85
2022/06/23 08:02:08;;;;;;;10.57;5.18;;;18.00;99.90;;;;;;4962094;28;20054;-87
2022/06/23 08:05:05;;;;;;;9.35;5.25;;;18.00;99.90;;;;;;4964190;28;20050;-88
2022/06/23 08:07:32;;;;;;;5.57;5.07;;;18.10;99.90;;;;;;4984548;28;20334;-87
2022/06/23 08:10:02;;;;;;;7.57;5.57;;;18.20;99.90;;;;;;4972559;28;20243;-87
2022/06/23 08:12:55;;;;;;;7.55;6.00;;;18.20;99.90;;;;;;4965579;28;20054;-86
2022/06/23 08:18:41;;;;;;;5.55;4.97;;;18.30;99.90;;;;;;4979493;28;20126;-88
2022/06/23 08:21:37;;;;;;;6.13;5.55;;;18.40;99.90;;;;;;4981872;28;20054;-87
2022/06/23 08:24:08;;;;;;;6.97;5.47;;;18.40;99.90;;;;;;4967980;28;20050;-87
2022/06/23 08:26:36;;;;;;;8.80;5.30;;;18.50;99.90;;;;;;4989415;28;20090;-85
2022/06/23 08:29:06;;;;;;;7.90;5.78;;;18.50;99.90;;;;;;4975839;28;20085;-87
2022/06/23 08:31:31;;;;;;;9.23;5.65;;;18.50;99.90;;;;;;4980818;28;20042;-84
2022/06/23 08:33:59;;;;;;;6.57;4.97;;;18.60;99.90;;;;;;4975154;28;20053;-86
2022/06/23 08:36:36;;;;;;;7.28;4.60;;;18.60;99.90;;;;;;4975260;28;20232;-84
2022/06/23 08:39:15;;;;;;;5.50;4.93;;;18.70;99.90;;;;;;4972002;28;20333;-85
2022/06/23 08:41:56;;;;;;;6.43;5.45;;;18.70;99.90;;;;;;4972482;28;20039;-84
2022/06/23 08:44:34;;;;;;;7.20;4.80;;;18.80;99.90;;;;;;4970823;28;20396;-84
2022/06/23 08:47:26;;;;;;;5.97;4.55;;;18.80;99.90;;;;;;4983215;28;20503;-80
2022/06/23 08:50:00;;;;;;;5.10;4.22;;;18.80;99.90;;;;;;4983655;28;20052;-87
2022/06/23 08:52:34;;;;;;;5.40;4.22;;;18.90;99.90;;;;;;4977677;28;20709;-86
2022/06/23 08:55:22;;;;;;;6.00;5.05;;;18.90;99.90;;;;;;4970382;28;20046;-85
2022/06/23 08:57:53;;;;;;;5.60;5.10;;;19.00;99.90;;;;;;4987683;28;20051;-87
2022/06/23 09:00:28;;;;;;;7.20;3.75;;;19.00;99.90;;;;;;4970020;28;20049;-84
2022/06/23 09:03:06;;;;;;;6.03;4.93;;;19.10;99.90;;;;;;4971807;28;20039;-84
2022/06/23 09:05:57;;;;;;;5.68;4.60;;;19.20;99.90;;;;;;4972786;28;20547;-86
2022/06/23 09:08:42;;;;;;;7.47;3.92;;;19.20;99.90;;;;;;4972809;28;20066;-84
2022/06/23 09:11:18;;;;;;;4.90;3.88;;;19.30;99.90;;;;;;4982457;28;20420;-83
2022/06/23 09:14:03;;;;;;;5.75;3.30;;;19.40;99.90;;;;;;4961576;28;20084;-82
2022/06/23 09:17:06;;;;;;;7.78;3.60;;;19.40;99.90;;;;;;4964939;28;20051;-84
2022/06/23 09:19:50;;;;;;;3.25;2.95;;;19.50;99.90;;;;;;4962996;28;20185;-86
2022/06/23 09:22:21;;;;;;;3.88;3.58;;;19.50;99.90;;;;;;4963048;28;20042;-84
2022/06/23 09:25:28;;;;;;;6.72;3.40;;;19.60;99.90;;;;;;4964274;28;20059;-84
2022/06/23 09:28:24;;;;;;;3.28;3.08;;;19.60;99.90;;;;;;4962358;28;20363;-85
2022/06/23 09:31:12;;;;;;;6.22;3.83;;;19.70;99.90;;;;;;4963754;28;20051;-85
2022/06/23 09:33:38;;;;;;;4.82;3.72;;;19.80;99.90;;;;;;4967964;28;20618;-87
2022/06/23 09:36:51;;;;;;;12.10;3.53;;;19.80;99.90;;;;;;4981923;28;20046;-86
2022/06/23 09:39:54;;;;;;;4.15;3.50;;;19.90;99.90;;;;;;4969953;28;20054;-86
2022/06/23 09:42:30;;;;;;;4.45;3.65;;;19.90;99.90;;;;;;4962779;28;20126;-86
2022/06/23 09:45:12;;;;;;;4.47;3.85;;;20.00;99.90;;;;;;4963366;28;20085;-86
2022/06/23 09:48:04;;;;;;;5.30;2.85;;;20.00;99.90;;;;;;4964484;28;20042;-85
2022/06/23 09:50:48;;;;;;;4.60;3.30;;;20.10;99.90;;;;;;4962638;28;20550;-87
2022/06/23 09:53:42;;;;;;;3.17;2.60;;;20.10;99.90;;;;;;4962733;28;20046;-81
2022/06/23 09:56:24;;;;;;;4.10;2.78;;;20.10;99.90;;;;;;4962612;28;20575;-88
2022/06/23 09:59:17;;;;;;;3.33;2.97;;;20.20;99.90;;;;;;4959221;28;20260;-84
2022/06/23 10:02:20;;;;;;;4.70;3.05;;;20.30;99.90;;;;;;4981746;28;20484;-86
2022/06/23 10:04:58;;;;;;;6.25;3.33;;;20.30;99.90;;;;;;4977201;28;20505;-86
2022/06/23 10:07:42;;;;;;;7.00;3.78;;;20.40;99.90;;;;;;4967949;28;20129;-86
2022/06/23 10:10:54;;;;;;;4.82;3.55;;;20.50;99.90;;;;;;4966386;28;20085;-85
2022/06/23 10:13:34;;;;;;;3.88;3.13;;;20.50;99.90;;;;;;4970553;28;20489;-86
2022/06/23 10:16:26;;;;;;;3.88;3.03;;;20.60;99.90;;;;;;4972179;28;20145;-87
2022/06/23 10:19:15;;;;;;;9.07;3.80;;;20.60;99.90;;;;;;4972496;28;20412;-87
2022/06/23 10:22:05;;;;;;;3.80;3.17;;;20.60;99.90;;;;;;5004334;28;20405;-85
2022/06/23 10:24:40;;;;;;;3.20;2.88;;;20.70;99.90;;;;;;4972032;28;20038;-85
2022/06/23 10:27:22;;;;;;;4.78;3.08;;;20.70;99.90;;;;;;4970752;28;20604;-89
2022/06/23 10:30:13;;;;;;;3.60;2.33;;;20.80;99.90;;;;;;4970541;28;20046;-85
2022/06/23 10:33:07;;;;;;;3.53;2.20;;;20.90;99.90;;;;;;4976541;28;20130;-87
2022/06/23 10:36:02;;;;;;;3.65;2.25;;;21.00;99.90;;;;;;4980729;28;20115;-88
2022/06/23 10:38:38;;;;;;;2.80;2.00;;;21.00;99.90;;;;;;4981759;28;20519;-87
2022/06/23 10:41:36;;;;;;;3.55;1.70;;;21.10;99.90;;;;;;4980940;28;20327;-88
2022/06/23 10:44:07;;;;;;;2.33;1.73;;;21.20;99.90;;;;;;4978611;28;20046;-85
2022/06/23 10:46:44;;;;;;;2.17;2.00;;;21.30;99.90;;;;;;4982027;28;20046;-85
2022/06/23 10:49:54;;;;;;;4.07;2.10;;;21.30;99.90;;;;;;4983551;28;20046;-86
2022/06/23 10:52:58;;;;;;;2.38;1.83;;;21.30;99.90;;;;;;4938789;28;20489;-86
2022/06/23 10:55:42;;;;;;;1.55;1.38;;;21.40;99.90;;;;;;4979170;28;20465;-77
2022/06/23 10:58:52;;;;;;;5.35;2.33;;;21.40;99.90;;;;;;4982089;28;20042;-77
2022/06/23 11:01:46;;;;;;;2.20;2.10;;;21.50;99.90;;;;;;4980948;28;20507;-77
2022/06/23 11:04:30;;;;;;;1.80;1.48;;;21.50;99.90;;;;;;4982391;28;20046;-77
2022/06/23 11:07:23;;;;;;;2.83;1.98;;;21.60;99.90;;;;;;4980120;28;20038;-77
2022/06/23 11:10:12;;;;;;;3.17;2.30;;;21.70;99.90;;;;;;4977284;28;20089;-78
2022/06/23 11:12:46;;;;;;;5.97;2.17;;;21.80;99.90;;;;;;4981654;28;20042;-78
2022/06/23 11:15:37;;;;;;;2.67;1.95;;;21.80;99.90;;;;;;4980552;28;20062;-78
2022/06/23 11:18:15;;;;;;;5.28;2.47;;;21.90;99.90;;;;;;4944450;28;20488;-80
2022/06/23 11:21:03;;;;;;;1.63;1.50;;;22.00;99.90;;;;;;4964902;28;20141;-79
2022/06/23 11:24:02;;;;;;;2.08;1.90;;;22.00;99.90;;;;;;4975910;28;20829;-78
2022/06/23 11:27:05;;;;;;;2.45;1.90;;;22.10;99.90;;;;;;4980580;28;20031;-75
2022/06/23 11:29:34;;;;;;;2.08;1.98;;;22.20;99.90;;;;;;4979643;28;20116;-80
2022/06/23 11:32:46;;;;;;;1.88;1.77;;;22.20;99.90;;;;;;4981367;28;20050;-75
2022/06/23 11:35:23;;;;;;;2.22;1.60;;;22.20;99.90;;;;;;4979638;28;20053;-80
2022/06/23 11:38:13;;;;;;;4.10;2.03;;;22.30;99.90;;;;;;4993350;28;20680;-79
2022/06/23 11:40:56;;;;;;;1.83;1.73;;;22.30;99.90;;;;;;4957344;28;20042;-79
2022/06/23 11:43:23;;;;;;;2.17;1.73;;;22.40;99.90;;;;;;4969667;28;20085;-81
2022/06/23 11:46:07;;;;;;;1.98;1.85;;;22.50;99.90;;;;;;4975627;28;20042;-81
2022/06/23 11:48:47;;;;;;;2.10;1.80;;;22.60;99.90;;;;;;4970266;28;20145;-81
2022/06/23 11:51:44;;;;;;;1.85;1.75;;;22.60;99.90;;;;;;4977942;28;20545;-81
2022/06/23 11:54:31;;;;;;;3.97;1.92;;;22.60;99.90;;;;;;4971487;28;20054;-81
2022/06/23 11:57:26;;;;;;;2.20;1.50;;;22.70;99.90;;;;;;4961768;28;20085;-82
2022/06/23 12:00:22;;;;;;;1.73;1.63;;;22.80;99.90;;;;;;4975998;28;20222;-83
2022/06/23 12:03:03;;;;;;;2.55;2.17;;;22.80;99.90;;;;;;4968355;28;20038;-83
2022/06/23 12:05:47;;;;;;;5.75;2.00;;;22.90;99.90;;;;;;4962150;28;20109;-80
2022/06/23 12:08:24;;;;;;;1.50;1.38;;;22.90;99.90;;;;;;4948654;28;20481;-81
2022/06/23 12:10:50;;;;;;;2.72;1.85;;;23.00;99.90;;;;;;4995214;28;20053;-82
2022/06/23 12:13:16;;;;;;;1.88;1.77;;;23.00;99.90;;;;;;4994379;28;20042;-85
2022/06/23 12:15:49;;;;;;;1.95;1.80;;;23.00;99.90;;;;;;4979875;28;20058;-83
2022/06/23 12:18:40;;;;;;;2.60;2.40;;;23.10;99.90;;;;;;4979344;28;20504;-84
2022/06/23 12:21:06;;;;;;;3.28;2.15;;;23.10;99.90;;;;;;4980560;28;20456;-84
2022/06/23 12:24:14;;;;;;;1.83;1.73;;;23.10;99.90;;;;;;4966015;28;20039;-84
2022/06/23 12:26:46;;;;;;;2.08;1.98;;;23.10;99.90;;;;;;4929960;28;20089;-85
2022/06/23 12:29:51;;;;;;;2.63;2.42;;;23.30;99.90;;;;;;4960484;28;20073;-87
2022/06/23 12:32:27;;;;;;;2.13;1.70;;;23.30;99.90;;;;;;4976275;28;20079;-84
2022/06/23 12:35:18;;;;;;;3.03;2.55;;;23.40;99.90;;;;;;4962770;28;20073;-82
2022/06/23 12:37:59;;;;;;;2.33;2.13;;;23.40;99.90;;;;;;4959837;28;20046;-83
2022/06/23 12:40:40;;;;;;;2.80;1.88;;;23.50;99.90;;;;;;4956559;28;20050;-81
2022/06/23 12:43:13;;;;;;;2.28;1.73;;;23.50;99.90;;;;;;4961608;28;20077;-83
2022/06/23 12:46:02;;;;;;;2.40;1.98;;;23.60;99.90;;;;;;4963121;28;20144;-82
2022/06/23 12:48:53;;;;;;;2.55;2.35;;;23.60;99.90;;;;;;4946630;28;20259;-83
2022/06/23 12:51:37;;;;;;;7.03;2.67;;;23.60;99.90;;;;;;4962119;28;20528;-79
2022/06/23 12:54:15;;;;;;;1.90;1.77;;;23.70;99.90;;;;;;4963823;28;20046;-78
2022/06/23 12:57:08;;;;;;;2.83;2.45;;;23.80;99.90;;;;;;4954986;28;20151;-78
2022/06/23 12:59:56;;;;;;;2.78;1.83;;;23.80;99.90;;;;;;4967856;28;20045;-81
2022/06/23 13:02:30;;;;;;;3.42;2.40;;;23.90;99.90;;;;;;4951426;28;20050;-81
2022/06/23 13:05:22;;;;;;;2.40;2.20;;;24.00;99.90;;;;;;4964994;28;20283;-80
2022/06/23 13:07:57;;;;;;;3.17;1.80;;;24.00;99.90;;;;;;4953414;28;20038;-80
2022/06/23 13:10:36;;;;;;;2.25;1.98;;;24.00;99.90;;;;;;4959321;28;20050;-81
2022/06/23 13:13:22;;;;;;;2.45;2.25;;;24.10;99.90;;;;;;4952889;28;20470;-81
2022/06/23 13:16:06;;;;;;;1.90;1.70;;;24.10;99.90;;;;;;4950768;28;20050;-79
2022/06/23 13:18:42;;;;;;;3.17;2.10;;;24.20;99.90;;;;;;4935833;28;21651;-79
2022/06/23 13:21:20;;;;;;;2.20;2.08;;;24.20;99.90;;;;;;4956342;28;20038;-80
2022/06/23 13:23:51;;;;;;;3.17;2.88;;;24.30;99.90;;;;;;4952395;28;20600;-89
2022/06/23 13:26:22;;;;;;;6.50;2.85;;;24.30;99.90;;;;;;4956046;28;20062;-78
2022/06/23 13:28:59;;;;;;;8.48;2.50;;;24.30;99.90;;;;;;4967272;28;20129;-78
2022/06/23 13:31:45;;;;;;;1.88;1.77;;;24.40;99.90;;;;;;4952921;28;20137;-75
2022/06/23 13:34:31;;;;;;;6.55;2.83;;;24.40;99.90;;;;;;4947848;28;20300;-80
2022/06/23 13:37:03;;;;;;;2.80;2.22;;;24.50;99.90;;;;;;4955272;28;20192;-79
2022/06/23 13:39:45;;;;;;;;;;;24.60;99.90;;;;;;4957928;28;20531;-79
2022/06/23 13:42:19;;;;;;;2.30;2.08;;;24.60;99.90;;;;;;4956614;28;19956;-80
2022/06/23 13:44:53;;;;;;;1.92;1.83;;;24.70;99.90;;;;;;4953867;28;20057;-80
2022/06/23 13:47:28;;;;;;;1.58;1.48;;;24.80;99.90;;;;;;4972266;28;20042;-80
2022/06/23 13:50:22;;;;;;;3.28;2.10;;;24.90;99.90;;;;;;4956548;28;20409;-80
2022/06/23 13:52:52;;;;;;;4.72;2.28;;;24.90;99.90;;;;;;4955973;28;20140;-80
2022/06/23 13:55:26;;;;;;;1.80;1.70;;;24.90;99.90;;;;;;4955878;28;20034;-81
2022/06/23 13:58:16;;;;;;;4.85;2.28;;;24.90;99.90;;;;;;4954780;28;20097;-81
2022/06/23 14:01:14;;;;;;;2.65;1.90;;;24.90;99.90;;;;;;4939175;28;20185;-80
2022/06/23 14:03:45;;;;;;;2.38;2.17;;;24.90;99.90;;;;;;4950848;28;21461;-81